createdAt,value
2023-03-22T00:02:57.825Z,14.10
2023-03-22T00:06:03.693Z,14.10
2023-03-22T00:09:05.895Z,14.10
2023-03-22T00:12:08.020Z,14.00
2023-03-22T00:15:11.310Z,14.00
2023-03-22T00:18:13.332Z,14.00
2023-03-22T00:21:16.999Z,14.00
2023-03-22T00:24:21.242Z,14.00
2023-03-22T00:27:24.456Z,14.00
2023-03-22T00:30:26.446Z,14.00
2023-03-22T00:33:31.357Z,14.00
2023-03-22T00:36:33.409Z,14.10
2023-03-22T00:39:35.505Z,14.10
2023-03-22T00:42:38.612Z,14.10
2023-03-22T00:45:42.167Z,14.00
2023-03-22T00:48:46.141Z,14.00
2023-03-22T00:51:48.374Z,14.00
2023-03-22T00:54:50.336Z,14.00
2023-03-22T00:57:52.318Z,14.00
2023-03-22T01:00:55.368Z,13.90
2023-03-22T01:03:57.537Z,13.90
2023-03-22T01:07:05.815Z,13.90
2023-03-22T01:10:08.551Z,13.90
2023-03-22T01:13:12.250Z,13.90
2023-03-22T01:16:14.395Z,13.90
2023-03-22T01:19:16.467Z,13.80
2023-03-22T01:22:18.484Z,13.90
2023-03-22T01:25:20.522Z,13.80
2023-03-22T01:28:29.378Z,13.80
2023-03-22T01:31:31.842Z,13.80
2023-03-22T01:34:35.837Z,13.80
2023-03-22T01:37:38.994Z,13.70
2023-03-22T01:40:41.513Z,13.70
2023-03-22T01:43:43.834Z,13.70
2023-03-22T01:46:48.300Z,13.70
2023-03-22T01:49:50.593Z,13.70
2023-03-22T01:52:53.740Z,13.70
2023-03-22T01:55:57.872Z,13.70
2023-03-22T01:59:01.138Z,13.70
2023-03-22T02:02:04.558Z,13.70
2023-03-22T02:05:07.860Z,13.70
2023-03-22T02:08:10.662Z,13.70
2023-03-22T02:11:27.907Z,13.70
2023-03-22T02:14:51.115Z,13.70
2023-03-22T02:18:06.556Z,13.60
2023-03-22T02:21:39.086Z,13.60
2023-03-22T02:25:22.994Z,13.60
2023-03-22T02:28:48.372Z,13.60
2023-03-22T02:32:20.725Z,13.60
2023-03-22T02:35:29.019Z,13.50
2023-03-22T02:38:52.590Z,13.40
2023-03-22T02:42:16.512Z,13.50
2023-03-22T02:45:43.465Z,13.50
2023-03-22T02:48:59.324Z,13.50
2023-03-22T02:52:17.617Z,13.50
2023-03-22T02:55:31.935Z,13.50
2023-03-22T02:58:45.941Z,13.50
2023-03-22T03:01:55.050Z,13.40
2023-03-22T03:04:58.057Z,13.50
2023-03-22T03:08:02.789Z,13.50
2023-03-22T03:11:04.722Z,13.40
2023-03-22T03:14:06.820Z,13.40
2023-03-22T03:17:13.712Z,13.40
2023-03-22T03:20:30.333Z,13.40
2023-03-22T03:24:01.850Z,13.40
2023-03-22T03:27:17.902Z,13.30
2023-03-22T03:30:39.146Z,13.30
2023-03-22T03:34:17.772Z,13.30
2023-03-22T03:37:24.857Z,13.20
2023-03-22T03:40:31.132Z,13.20
2023-03-22T03:43:37.307Z,13.20
2023-03-22T03:46:40.093Z,13.20
2023-03-22T03:49:42.285Z,13.20
2023-03-22T03:52:44.352Z,13.30
2023-03-22T03:55:46.745Z,13.30
2023-03-22T03:58:48.762Z,13.30
2023-03-22T04:01:51.726Z,13.20
2023-03-22T04:04:54.003Z,13.20
2023-03-22T04:07:56.007Z,13.20
2023-03-22T04:10:57.994Z,13.20
2023-03-22T04:14:03.660Z,13.20
2023-03-22T04:17:05.747Z,13.20
2023-03-22T04:20:11.049Z,13.20
2023-03-22T04:23:13.200Z,13.20
2023-03-22T04:26:15.524Z,13.20
2023-03-22T04:29:22.154Z,13.10
2023-03-22T04:32:26.340Z,13.10
2023-03-22T04:35:28.409Z,13.10
2023-03-22T04:38:30.459Z,13.10
2023-03-22T04:41:33.572Z,13.20
2023-03-22T04:44:36.161Z,13.10
2023-03-22T04:47:38.237Z,13.20
2023-03-22T04:50:41.477Z,13.20
2023-03-22T04:53:43.767Z,13.20
2023-03-22T04:56:45.977Z,13.10
2023-03-22T04:59:48.040Z,13.10
2023-03-22T05:02:50.298Z,13.10
2023-03-22T05:05:58.245Z,13.10
2023-03-22T05:09:01.133Z,13.00
2023-03-22T05:12:03.149Z,13.00
2023-03-22T05:15:24.907Z,13.00
2023-03-22T05:18:45.542Z,13.00
2023-03-22T05:21:47.583Z,13.00
2023-03-22T05:24:49.687Z,13.00
2023-03-22T05:27:54.337Z,13.00
2023-03-22T05:30:57.271Z,12.90
2023-03-22T05:33:59.386Z,12.90
2023-03-22T05:37:02.484Z,12.90
2023-03-22T05:40:10.909Z,12.90
2023-03-22T05:43:13.600Z,12.90
2023-03-22T05:46:16.714Z,12.80
2023-03-22T05:49:19.834Z,12.80
2023-03-22T05:52:21.988Z,12.80
2023-03-22T05:55:23.984Z,12.70
2023-03-22T05:58:30.796Z,12.70
2023-03-22T06:01:33.925Z,12.70
2023-03-22T06:04:35.995Z,12.70
2023-03-22T06:07:38.566Z,12.60
2023-03-22T06:10:41.070Z,12.60
2023-03-22T06:13:43.486Z,12.60
2023-03-22T06:16:45.607Z,12.60
2023-03-22T06:19:47.994Z,12.60
2023-03-22T06:22:50.009Z,12.60
2023-03-22T06:25:52.978Z,12.50
2023-03-22T06:28:55.011Z,12.50
2023-03-22T06:31:57.005Z,12.50
2023-03-22T06:34:59.093Z,12.60
2023-03-22T06:38:01.737Z,12.60
2023-03-22T06:41:03.967Z,12.60
2023-03-22T06:44:10.501Z,12.60
2023-03-22T06:47:12.671Z,12.60
2023-03-22T06:50:15.979Z,12.60
2023-03-22T06:53:18.029Z,12.70
2023-03-22T06:56:20.548Z,12.70
2023-03-22T06:59:22.642Z,12.80
2023-03-22T07:02:24.744Z,13.20
2023-03-22T07:05:26.987Z,13.80
2023-03-22T07:08:29.065Z,14.40
2023-03-22T07:11:31.144Z,14.60
2023-03-22T07:14:33.386Z,15.00
2023-03-22T07:17:35.465Z,15.60
2023-03-22T07:20:42.895Z,16.40
2023-03-22T07:23:44.996Z,17.20
2023-03-22T07:26:47.027Z,17.80
2023-03-22T07:29:49.151Z,18.60
2023-03-22T07:32:51.344Z,19.20
2023-03-22T07:35:53.409Z,19.50
2023-03-22T07:38:55.488Z,20.10
2023-03-22T07:41:57.723Z,20.60
2023-03-22T07:44:59.846Z,21.30
2023-03-22T07:48:05.666Z,21.60
2023-03-22T07:51:12.420Z,22.10
2023-03-22T07:54:30.508Z,22.70
2023-03-22T07:57:36.342Z,23.60
2023-03-22T08:00:38.722Z,25.00
2023-03-22T08:03:41.019Z,25.30
2023-03-22T08:06:44.015Z,26.20
2023-03-22T08:09:46.377Z,26.50
2023-03-22T08:12:48.588Z,26.50
2023-03-22T08:15:50.816Z,26.80
2023-03-22T08:18:53.015Z,27.10
2023-03-22T08:21:55.020Z,27.00
2023-03-22T08:24:57.390Z,27.10
2023-03-22T08:28:02.445Z,27.80
2023-03-22T08:31:13.919Z,28.50
2023-03-22T08:34:38.124Z,29.00
2023-03-22T08:37:40.414Z,29.90
2023-03-22T08:40:45.712Z,29.70
2023-03-22T08:43:47.789Z,29.80
2023-03-22T08:46:49.985Z,30.00
2023-03-22T08:49:51.990Z,30.80
2023-03-22T08:52:54.112Z,30.20
2023-03-22T08:55:58.328Z,29.70
2023-03-22T08:59:00.412Z,30.10
2023-03-22T09:02:02.703Z,30.10
2023-03-22T09:05:05.142Z,30.70
2023-03-22T09:08:07.438Z,31.10
2023-03-22T09:11:12.478Z,31.80
2023-03-22T09:14:14.661Z,32.40
2023-03-22T09:17:20.685Z,31.50
2023-03-22T09:20:26.164Z,31.90
2023-03-22T09:23:30.439Z,31.80
2023-03-22T09:26:32.657Z,32.60
2023-03-22T09:29:34.839Z,32.90
2023-03-22T09:32:38.695Z,33.30
2023-03-22T09:35:42.824Z,33.50
2023-03-22T09:38:45.735Z,32.80
2023-03-22T09:41:54.600Z,33.70
2023-03-22T09:44:57.822Z,34.10
2023-03-22T09:48:00.641Z,33.80
2023-03-22T09:51:04.860Z,33.90
2023-03-22T09:54:21.872Z,33.70
2023-03-22T09:57:37.150Z,33.60
2023-03-22T10:00:48.381Z,34.50
2023-03-22T10:04:15.069Z,33.70
2023-03-22T10:07:17.118Z,33.90
2023-03-22T10:10:23.368Z,33.70
2023-03-22T10:13:54.477Z,34.20
2023-03-22T10:16:59.092Z,34.00
2023-03-22T10:20:19.842Z,34.00
2023-03-22T10:23:47.826Z,34.30
2023-03-22T10:26:51.421Z,33.30
2023-03-22T10:30:01.511Z,33.60
2023-03-22T10:33:12.265Z,33.70
2023-03-22T10:36:16.661Z,33.70
2023-03-22T10:39:32.694Z,33.20
2023-03-22T10:42:38.668Z,34.00
2023-03-22T10:45:43.403Z,34.00
2023-03-22T10:48:49.824Z,34.70
2023-03-22T10:51:57.582Z,34.90
2023-03-22T10:55:04.366Z,35.60
2023-03-22T10:58:16.009Z,34.80
2023-03-22T11:01:33.568Z,34.60
2023-03-22T11:04:37.682Z,33.90
2023-03-22T11:07:44.725Z,33.60
2023-03-22T11:10:51.654Z,33.80
2023-03-22T11:14:15.980Z,34.10
2023-03-22T11:17:26.177Z,33.20
2023-03-22T11:20:30.671Z,33.70
2023-03-22T11:23:36.141Z,33.10
2023-03-22T11:26:40.839Z,32.20
2023-03-22T11:29:48.465Z,32.10
2023-03-22T11:33:01.890Z,32.70
2023-03-22T11:36:25.186Z,32.90
2023-03-22T11:39:29.426Z,32.30
2023-03-22T11:42:34.708Z,31.20
2023-03-22T11:45:41.566Z,30.20
2023-03-22T11:48:46.768Z,28.40
2023-03-22T11:51:50.060Z,28.10
2023-03-22T11:54:54.833Z,27.10
2023-03-22T11:57:57.240Z,25.80
2023-03-22T12:01:01.543Z,24.60
2023-03-22T12:04:09.314Z,24.00
2023-03-22T12:07:16.522Z,24.30
2023-03-22T12:10:39.840Z,24.50
2023-03-22T12:14:09.573Z,24.60
2023-03-22T12:17:24.403Z,23.90
2023-03-22T12:20:47.746Z,23.50
2023-03-22T12:23:49.740Z,23.60
2023-03-22T12:26:55.716Z,23.30
2023-03-22T12:30:01.751Z,23.40
2023-03-22T12:33:27.356Z,23.50
2023-03-22T12:36:54.680Z,23.50
2023-03-22T12:40:02.128Z,23.50
2023-03-22T12:43:16.498Z,23.40
2023-03-22T12:46:24.002Z,23.30
2023-03-22T12:49:40.745Z,23.20
2023-03-22T12:52:57.108Z,23.10
2023-03-22T12:56:01.043Z,22.80
2023-03-22T12:59:06.696Z,22.80
2023-03-22T13:02:27.623Z,22.70
2023-03-22T13:05:33.601Z,22.60
2023-03-22T13:09:02.235Z,22.40
2023-03-22T13:12:19.171Z,22.10
2023-03-22T13:15:41.788Z,21.70
2023-03-22T13:18:45.256Z,21.90
2023-03-22T13:21:50.031Z,22.10
2023-03-22T13:25:06.634Z,22.20
2023-03-22T13:28:26.531Z,22.30
2023-03-22T13:31:44.077Z,22.30
2023-03-22T13:34:52.077Z,22.40
2023-03-22T13:38:02.126Z,22.50
2023-03-22T13:41:09.856Z,22.50
2023-03-22T13:44:26.689Z,22.40
2023-03-22T13:47:36.946Z,22.50
2023-03-22T13:50:40.234Z,22.50
2023-03-22T13:54:05.685Z,22.50
2023-03-22T13:57:17.638Z,22.50
2023-03-22T14:00:42.659Z,22.50
2023-03-22T14:03:47.663Z,22.70
2023-03-22T14:06:57.609Z,22.80
2023-03-22T14:10:25.737Z,22.80
2023-03-22T14:13:39.718Z,22.80
2023-03-22T14:16:49.486Z,22.60
2023-03-22T14:19:52.429Z,22.50
